createdAt,value
2023-02-06T00:01:01.103Z,20.73
2023-02-06T00:02:03.185Z,19.58
2023-02-06T00:03:08.164Z,21.30
2023-02-06T00:04:11.688Z,21.45
2023-02-06T00:05:16.407Z,20.48
2023-02-06T00:06:19.371Z,20.60
2023-02-06T00:07:24.954Z,21.45
2023-02-06T00:08:27.984Z,21.10
2023-02-06T00:09:34.671Z,20.58
2023-02-06T00:10:38.140Z,21.13
2023-02-06T00:11:43.071Z,21.13
2023-02-06T00:12:45.307Z,19.95
2023-02-06T00:13:54.359Z,19.77
2023-02-06T00:14:56.387Z,19.85
2023-02-06T00:16:01.011Z,20.77
2023-02-06T00:17:06.904Z,21.60
2023-02-06T00:18:09.078Z,20.67
2023-02-06T00:19:16.134Z,22.58
2023-02-06T00:20:19.721Z,21.40
2023-02-06T00:21:27.041Z,21.10
2023-02-06T00:22:30.677Z,20.98
2023-02-06T00:23:36.771Z,22.58
2023-02-06T00:25:57.540Z,21.77
2023-02-06T00:26:59.483Z,22.05
2023-02-06T00:28:04.480Z,20.52
2023-02-06T00:29:13.280Z,21.45
2023-02-06T00:30:15.845Z,21.35
2023-02-06T00:31:22.595Z,21.50
2023-02-06T00:32:25.975Z,23.05
2023-02-06T00:33:31.168Z,24.27
2023-02-06T00:34:33.880Z,23.48
2023-02-06T00:35:39.894Z,25.40
2023-02-06T00:36:42.636Z,22.92
2023-02-06T00:37:47.870Z,21.33
2023-02-06T00:38:49.916Z,26.55
2023-02-06T00:39:56.545Z,22.00
2023-02-06T00:40:59.420Z,24.08
2023-02-06T00:42:04.735Z,22.85
2023-02-06T00:43:07.947Z,22.73
2023-02-06T00:44:16.384Z,22.67
2023-02-06T00:45:19.034Z,23.48
2023-02-06T00:46:25.162Z,23.80
2023-02-06T00:47:28.579Z,24.25
2023-02-06T00:48:33.294Z,25.60
2023-02-06T00:49:35.294Z,24.65
2023-02-06T00:50:40.879Z,25.20
2023-02-06T00:51:43.487Z,24.05
2023-02-06T00:52:48.586Z,24.25
2023-02-06T00:55:10.413Z,25.30
2023-02-06T00:56:12.514Z,24.67
2023-02-06T00:57:17.593Z,24.95
2023-02-06T00:58:19.717Z,24.25
2023-02-06T00:59:27.441Z,24.08
2023-02-06T01:00:29.768Z,23.92
2023-02-06T01:01:34.490Z,26.13
2023-02-06T01:02:37.163Z,24.30
2023-02-06T01:03:41.887Z,25.55
2023-02-06T01:04:43.861Z,24.98
2023-02-06T01:05:48.819Z,26.17
2023-02-06T01:06:51.469Z,27.88
2023-02-06T01:07:56.062Z,27.50
2023-02-06T01:08:58.168Z,27.15
2023-02-06T01:10:02.767Z,27.40
2023-02-06T01:11:12.957Z,26.35
2023-02-06T01:12:15.553Z,26.25
2023-02-06T01:13:53.351Z,27.15
2023-02-06T01:16:28.121Z,25.92
2023-02-06T01:17:32.795Z,26.23
2023-02-06T01:18:38.586Z,27.98
2023-02-06T01:20:12.942Z,26.83
2023-02-06T01:21:18.210Z,26.50
2023-02-06T01:22:24.054Z,27.33
2023-02-06T01:23:28.049Z,27.20
2023-02-06T01:24:33.506Z,27.17
2023-02-06T01:25:37.962Z,26.02
2023-02-06T01:26:43.875Z,27.25
2023-02-06T01:27:46.661Z,29.25
2023-02-06T01:28:57.041Z,28.52
2023-02-06T01:29:59.296Z,28.33
2023-02-06T01:31:05.927Z,28.08
2023-02-06T01:32:12.966Z,27.42
2023-02-06T01:33:20.793Z,27.10
2023-02-06T01:34:24.323Z,29.25
2023-02-06T01:35:29.869Z,30.10
2023-02-06T01:36:32.869Z,29.98
2023-02-06T01:37:38.492Z,28.38
2023-02-06T01:38:43.200Z,28.75
2023-02-06T01:41:09.488Z,28.02
2023-02-06T01:42:13.927Z,28.60
2023-02-06T01:45:41.615Z,27.85
2023-02-06T01:46:45.390Z,26.65
2023-02-06T01:47:55.395Z,28.73
2023-02-06T01:48:57.561Z,27.05
2023-02-06T01:50:03.805Z,27.08
2023-02-06T01:51:12.374Z,28.00
2023-02-06T01:52:22.374Z,28.15
2023-02-06T01:53:28.221Z,28.17
2023-02-06T01:54:35.375Z,28.85
2023-02-06T01:55:39.901Z,28.98
2023-02-06T01:56:50.772Z,28.75
2023-02-06T01:57:53.040Z,26.90
2023-02-06T01:59:03.120Z,28.48
2023-02-06T02:00:09.553Z,29.60
2023-02-06T02:01:15.805Z,28.60
2023-02-06T02:02:18.079Z,27.10
2023-02-06T02:03:25.960Z,28.90
2023-02-06T02:04:31.824Z,29.60
2023-02-06T02:05:38.537Z,29.02
2023-02-06T02:06:41.033Z,29.75
2023-02-06T02:07:52.934Z,29.00
2023-02-06T02:08:58.399Z,28.77
2023-02-06T02:10:03.389Z,29.98
2023-02-06T02:11:07.951Z,30.25
2023-02-06T02:12:16.436Z,29.33
2023-02-06T02:13:19.945Z,29.23
2023-02-06T02:14:25.938Z,29.70
2023-02-06T02:15:39.225Z,29.63
2023-02-06T02:16:53.689Z,31.17
2023-02-06T02:18:03.519Z,29.73
2023-02-06T02:19:35.896Z,31.20
2023-02-06T02:21:20.032Z,29.38
2023-02-06T02:22:45.031Z,30.30
2023-02-06T02:23:58.348Z,30.10
2023-02-06T02:25:20.830Z,30.50
2023-02-06T02:26:57.605Z,31.52
2023-02-06T02:28:24.593Z,29.92
2023-02-06T02:30:00.222Z,29.40
2023-02-06T02:31:51.628Z,29.17
2023-02-06T02:33:25.509Z,28.13
2023-02-06T02:34:58.336Z,28.35
2023-02-06T02:36:08.745Z,27.55
2023-02-06T02:37:18.693Z,30.25
2023-02-06T02:38:36.229Z,28.83
2023-02-06T02:39:47.132Z,29.23
2023-02-06T02:40:59.995Z,31.17
2023-02-06T02:42:12.003Z,30.52
2023-02-06T02:43:25.589Z,29.38
2023-02-06T02:44:37.390Z,28.98
2023-02-06T02:45:46.895Z,29.10
2023-02-06T02:46:56.070Z,29.77
2023-02-06T02:48:11.542Z,28.75
2023-02-06T02:49:35.143Z,29.38
2023-02-06T02:50:40.665Z,29.58
2023-02-06T02:51:46.492Z,30.00
2023-02-06T02:52:49.419Z,29.35
2023-02-06T02:53:56.469Z,31.23
2023-02-06T02:54:59.488Z,30.88
2023-02-06T02:56:05.092Z,29.65
2023-02-06T02:57:14.952Z,29.00
2023-02-06T02:58:25.744Z,30.30
2023-02-06T02:59:31.966Z,29.58
2023-02-06T03:00:43.567Z,30.80
2023-02-06T03:02:57.917Z,29.30
2023-02-06T03:04:08.784Z,30.35
2023-02-06T03:05:16.168Z,28.38
2023-02-06T03:06:38.370Z,29.35
2023-02-06T03:07:47.920Z,29.48
2023-02-06T03:09:06.249Z,29.33
2023-02-06T03:10:19.138Z,29.52
2023-02-06T03:11:23.096Z,29.40
2023-02-06T03:12:37.374Z,31.67
2023-02-06T03:13:44.882Z,28.92
2023-02-06T03:14:57.791Z,29.48
2023-02-06T03:16:06.156Z,30.95
2023-02-06T03:17:17.423Z,30.60
2023-02-06T03:18:24.180Z,31.35
2023-02-06T03:19:36.274Z,31.02
2023-02-06T03:20:47.300Z,32.65
2023-02-06T03:21:52.904Z,32.45
2023-02-06T03:23:00.814Z,30.90
2023-02-06T03:24:09.021Z,32.00
2023-02-06T03:25:19.222Z,31.95
2023-02-06T03:26:26.244Z,33.28
2023-02-06T03:27:33.076Z,31.70
2023-02-06T03:28:40.747Z,31.77
2023-02-06T03:29:48.146Z,30.48
2023-02-06T03:30:54.563Z,33.15
2023-02-06T03:32:04.440Z,33.03
2023-02-06T03:33:12.084Z,32.63
2023-02-06T03:34:24.052Z,33.20
2023-02-06T03:35:32.655Z,32.30
2023-02-06T03:36:38.751Z,34.25
2023-02-06T03:37:44.495Z,35.67
2023-02-06T03:38:52.709Z,33.47
2023-02-06T03:39:57.943Z,33.38
2023-02-06T03:41:05.144Z,32.70
2023-02-06T03:42:11.463Z,35.00
2023-02-06T03:43:19.117Z,34.08
2023-02-06T03:44:25.611Z,34.95
2023-02-06T03:45:34.643Z,33.70
2023-02-06T03:46:40.892Z,35.03
2023-02-06T03:47:49.837Z,33.92
2023-02-06T03:48:58.218Z,35.15
2023-02-06T03:50:04.243Z,35.95
2023-02-06T03:51:12.747Z,37.28
2023-02-06T03:52:23.109Z,37.92
2023-02-06T03:53:29.181Z,34.10
2023-02-06T03:54:36.170Z,36.25
2023-02-06T03:55:40.888Z,36.78
2023-02-06T03:56:51.199Z,37.38
2023-02-06T03:57:59.011Z,35.85
2023-02-06T03:59:04.593Z,37.45
2023-02-06T04:00:09.223Z,36.72
2023-02-06T04:01:16.970Z,37.22
2023-02-06T04:02:23.065Z,37.22
2023-02-06T04:03:29.932Z,36.40
2023-02-06T04:04:35.996Z,37.10
2023-02-06T04:05:42.413Z,36.70
2023-02-06T04:06:45.876Z,38.08
2023-02-06T04:07:54.368Z,36.22
2023-02-06T04:08:59.626Z,39.00
2023-02-06T04:10:05.287Z,38.10
2023-02-06T04:11:08.260Z,37.88
2023-02-06T04:12:13.574Z,36.58
2023-02-06T04:13:16.317Z,38.33
2023-02-06T04:14:21.553Z,38.25
2023-02-06T04:15:24.391Z,38.65
2023-02-06T04:16:29.480Z,39.05
2023-02-06T04:17:49.845Z,36.65
2023-02-06T04:18:57.344Z,36.75
2023-02-06T04:19:59.954Z,36.53
2023-02-06T04:21:09.596Z,37.80
2023-02-06T04:22:17.926Z,38.58
2023-02-06T04:23:20.914Z,37.10
2023-02-06T04:24:31.012Z,38.05
2023-02-06T04:25:33.777Z,35.15
2023-02-06T04:26:38.643Z,38.00
2023-02-06T04:27:41.274Z,37.05
2023-02-06T04:28:46.241Z,38.50
2023-02-06T04:29:48.962Z,36.47
2023-02-06T04:30:53.850Z,37.20
2023-02-06T04:32:02.146Z,36.33
2023-02-06T04:33:07.121Z,36.05
2023-02-06T04:34:09.517Z,35.75
2023-02-06T04:35:14.397Z,36.25
2023-02-06T04:36:19.954Z,35.20
2023-02-06T04:37:22.113Z,36.00
2023-02-06T04:38:27.227Z,36.30
2023-02-06T04:39:32.410Z,36.78
2023-02-06T04:40:38.437Z,35.45
2023-02-06T04:41:41.076Z,35.65
2023-02-06T04:42:46.123Z,35.00
2023-02-06T04:43:48.832Z,35.83
2023-02-06T04:44:54.224Z,34.58
2023-02-06T04:45:57.133Z,34.53
2023-02-06T04:47:05.209Z,34.58
2023-02-06T04:48:07.610Z,33.75
2023-02-06T04:49:12.933Z,35.72
2023-02-06T04:50:15.566Z,34.72
2023-02-06T04:51:20.432Z,34.70
2023-02-06T04:52:22.766Z,33.90
2023-02-06T04:53:28.554Z,32.22
2023-02-06T04:54:33.471Z,34.55
2023-02-06T04:55:38.820Z,33.38
2023-02-06T04:56:41.372Z,33.85
2023-02-06T04:57:47.171Z,31.42
2023-02-06T04:58:49.843Z,33.95
2023-02-06T04:59:55.062Z,32.88
2023-02-06T05:00:58.339Z,34.40
2023-02-06T05:02:04.646Z,32.42
2023-02-06T05:03:09.935Z,34.17
2023-02-06T05:04:12.872Z,33.25
2023-02-06T05:05:18.527Z,32.75
2023-02-06T05:06:21.399Z,34.67
2023-02-06T05:07:27.176Z,33.50
2023-02-06T05:08:30.054Z,32.08
2023-02-06T05:09:38.210Z,31.27
2023-02-06T05:10:41.516Z,30.50
2023-02-06T05:11:47.354Z,32.17
2023-02-06T05:12:51.488Z,32.00
2023-02-06T05:13:57.592Z,31.52
2023-02-06T05:15:00.626Z,32.28
2023-02-06T05:16:10.058Z,32.25
2023-02-06T05:17:13.082Z,32.05
2023-02-06T05:18:19.415Z,31.75
2023-02-06T05:19:23.143Z,32.72
2023-02-06T05:20:30.083Z,33.25
2023-02-06T05:21:32.882Z,30.13
2023-02-06T05:22:38.613Z,31.80
2023-02-06T05:23:41.546Z,32.92
2023-02-06T05:24:50.097Z,31.15
2023-02-06T05:25:52.879Z,30.80
2023-02-06T05:26:59.618Z,32.45
2023-02-06T05:28:03.014Z,31.45
2023-02-06T05:29:09.183Z,30.65
2023-02-06T05:30:13.539Z,29.63
2023-02-06T05:31:20.480Z,30.20
2023-02-06T05:32:23.732Z,30.52
2023-02-06T05:33:30.068Z,29.50
2023-02-06T05:34:33.095Z,29.73
2023-02-06T05:35:38.373Z,30.75
2023-02-06T05:36:41.382Z,30.80
2023-02-06T05:37:46.283Z,30.85
2023-02-06T05:38:49.802Z,30.02
2023-02-06T05:39:59.855Z,30.15
2023-02-06T05:41:04.029Z,31.40
2023-02-06T05:42:09.514Z,29.15
2023-02-06T05:43:12.646Z,31.77
2023-02-06T05:44:18.433Z,31.13
2023-02-06T05:45:23.701Z,30.05
2023-02-06T05:46:26.885Z,30.33
2023-02-06T05:47:32.397Z,29.67
2023-02-06T05:48:35.624Z,31.25
2023-02-06T05:49:40.555Z,30.58
2023-02-06T05:50:43.520Z,31.45
2023-02-06T05:51:49.220Z,32.40
2023-02-06T05:52:51.967Z,30.30
2023-02-06T05:53:57.682Z,30.92
2023-02-06T05:55:02.998Z,30.50
2023-02-06T05:56:09.059Z,15.27
2023-02-06T05:57:12.379Z,22.70
2023-02-06T05:58:17.595Z,26.27
2023-02-06T05:59:20.873Z,27.65
2023-02-06T06:00:26.244Z,27.65
2023-02-06T06:01:31.636Z,29.70
2023-02-06T06:02:34.235Z,28.88
2023-02-06T06:03:40.007Z,29.20
2023-02-06T06:04:42.991Z,28.95
2023-02-06T06:05:48.773Z,29.45
2023-02-06T06:06:51.926Z,30.40
2023-02-06T06:07:57.356Z,29.77
2023-02-06T06:09:01.685Z,28.02
2023-02-06T06:10:10.058Z,26.08
2023-02-06T06:11:13.044Z,23.13
2023-02-06T06:12:18.773Z,16.20
2023-02-06T06:13:21.759Z,16.77
2023-02-06T06:14:27.088Z,23.02
2023-02-06T06:15:32.809Z,23.42
2023-02-06T06:16:38.059Z,23.50
2023-02-06T06:17:40.579Z,24.13
2023-02-06T06:18:45.798Z,24.13
2023-02-06T06:19:48.274Z,26.83
2023-02-06T06:20:53.370Z,25.42
2023-02-06T06:21:57.900Z,23.80
2023-02-06T06:23:02.880Z,24.20
2023-02-06T06:24:05.447Z,25.45
2023-02-06T06:25:12.612Z,26.17
2023-02-06T06:26:14.600Z,25.23
2023-02-06T06:27:19.132Z,23.88
2023-02-06T06:28:23.876Z,21.88
2023-02-06T06:29:26.603Z,11.32
2023-02-06T06:30:31.405Z,12.30
2023-02-06T06:31:33.991Z,11.55
2023-02-06T06:32:39.507Z,11.07
2023-02-06T06:33:42.131Z,11.65
2023-02-06T06:34:46.655Z,11.48
2023-02-06T06:35:48.591Z,13.70
2023-02-06T06:36:53.388Z,13.48
2023-02-06T06:37:55.474Z,14.00
2023-02-06T06:39:00.131Z,16.92
2023-02-06T06:40:02.181Z,16.17
2023-02-06T06:41:09.953Z,17.70
2023-02-06T06:42:12.083Z,14.98
2023-02-06T06:43:16.863Z,16.00
2023-02-06T06:44:18.933Z,14.68
2023-02-06T06:45:24.114Z,15.43
2023-02-06T06:46:31.318Z,15.32
2023-02-06T06:47:33.915Z,16.75
2023-02-06T06:48:42.827Z,17.25
2023-02-06T06:49:45.785Z,16.95
2023-02-06T06:50:55.029Z,15.60
2023-02-06T06:52:01.149Z,17.67
2023-02-06T06:53:06.464Z,20.48
2023-02-06T06:54:08.564Z,19.77
2023-02-06T06:55:13.668Z,19.80
2023-02-06T06:56:21.188Z,19.48
2023-02-06T06:57:23.722Z,19.70
2023-02-06T06:58:28.897Z,21.38
2023-02-06T06:59:30.837Z,20.83
2023-02-06T07:00:36.253Z,20.80
2023-02-06T07:01:38.974Z,20.25
2023-02-06T07:02:43.869Z,21.95
2023-02-06T07:03:48.255Z,18.02
2023-02-06T07:04:53.473Z,20.10
2023-02-06T07:05:55.494Z,18.80
2023-02-06T07:07:01.720Z,19.83
2023-02-06T07:08:03.732Z,19.67
2023-02-06T07:09:08.774Z,19.38
2023-02-06T07:10:11.851Z,17.35
2023-02-06T07:11:21.505Z,16.00
2023-02-06T07:12:23.500Z,18.40
2023-02-06T07:13:28.459Z,16.42
2023-02-06T07:14:33.246Z,19.73
2023-02-06T07:15:38.358Z,15.45
2023-02-06T07:16:43.508Z,15.80
2023-02-06T07:17:45.700Z,15.63
2023-02-06T07:18:50.345Z,13.93
2023-02-06T07:19:52.622Z,14.77
2023-02-06T07:20:57.511Z,14.05
2023-02-06T07:21:59.526Z,12.90
2023-02-06T07:23:04.919Z,13.75
2023-02-06T07:24:07.549Z,15.23
2023-02-06T07:25:12.523Z,12.82
2023-02-06T07:26:20.554Z,12.00
2023-02-06T07:27:22.568Z,12.52
2023-02-06T07:28:27.847Z,11.40
2023-02-06T07:29:32.093Z,11.50
2023-02-06T07:30:37.478Z,12.10
2023-02-06T07:31:40.449Z,10.88
2023-02-06T07:32:46.739Z,13.00
2023-02-06T07:33:52.357Z,10.80
2023-02-06T07:34:55.550Z,11.40
2023-02-06T07:36:03.509Z,11.23
2023-02-06T07:37:08.533Z,11.73
2023-02-06T07:38:14.459Z,11.65
2023-02-06T07:39:19.162Z,10.32
2023-02-06T07:40:22.596Z,9.95
2023-02-06T07:41:30.368Z,10.13
2023-02-06T07:42:34.180Z,9.93
2023-02-06T07:43:39.276Z,10.77
2023-02-06T07:44:44.136Z,11.10
2023-02-06T07:45:48.985Z,10.43
2023-02-06T07:46:52.984Z,10.57
2023-02-06T07:47:57.504Z,9.57
2023-02-06T07:48:59.418Z,9.93
2023-02-06T07:50:04.376Z,10.20
2023-02-06T07:51:08.464Z,9.82
2023-02-06T07:52:13.264Z,10.70
2023-02-06T07:53:15.313Z,10.15
2023-02-06T07:54:20.898Z,10.02
2023-02-06T07:55:26.632Z,9.38
2023-02-06T07:56:33.775Z,9.65
2023-02-06T07:57:36.556Z,9.60
2023-02-06T07:58:41.930Z,9.70
2023-02-06T07:59:44.131Z,10.20
2023-02-06T08:00:48.740Z,9.98
2023-02-06T08:01:50.916Z,9.50
2023-02-06T08:02:56.788Z,10.40
2023-02-06T08:04:01.633Z,9.90
2023-02-06T08:05:03.669Z,10.23
2023-02-06T08:06:12.244Z,10.65
2023-02-06T08:07:19.880Z,9.88
2023-02-06T08:08:21.886Z,12.00
2023-02-06T08:09:26.441Z,11.18
2023-02-06T08:10:29.525Z,10.82
2023-02-06T08:11:36.787Z,11.63
2023-02-06T08:12:41.486Z,11.40
2023-02-06T08:13:44.665Z,11.88
2023-02-06T08:14:50.637Z,12.30
2023-02-06T08:15:52.683Z,15.13
2023-02-06T08:16:58.150Z,13.35
2023-02-06T08:18:02.685Z,13.70
2023-02-06T08:19:10.901Z,12.80
2023-02-06T08:20:15.838Z,12.45
2023-02-06T08:21:23.500Z,12.00
2023-02-06T08:22:28.014Z,12.25
2023-02-06T08:23:30.085Z,11.73
2023-02-06T08:24:35.009Z,11.45
2023-02-06T08:25:37.543Z,11.85
2023-02-06T08:26:44.895Z,11.25
2023-02-06T08:27:46.890Z,14.57
2023-02-06T08:28:52.765Z,12.88
2023-02-06T08:29:59.464Z,12.13
2023-02-06T08:31:01.975Z,11.90
2023-02-06T08:32:06.906Z,12.32
2023-02-06T08:33:12.541Z,11.13
2023-02-06T08:34:15.501Z,12.23
2023-02-06T08:35:21.561Z,12.80
2023-02-06T08:36:24.684Z,12.65
2023-02-06T08:37:29.368Z,12.57
2023-02-06T08:38:34.631Z,12.70
2023-02-06T08:39:40.568Z,12.40
2023-02-06T08:40:46.980Z,13.82
2023-02-06T08:41:56.278Z,13.60
2023-02-06T08:43:01.564Z,12.80
2023-02-06T08:44:05.963Z,12.45
2023-02-06T08:45:12.240Z,12.10
2023-02-06T08:46:15.291Z,11.45
2023-02-06T08:47:21.172Z,11.77
2023-02-06T08:48:23.795Z,11.07
2023-02-06T08:50:40.836Z,10.63
2023-02-06T08:51:43.208Z,10.75
2023-02-06T08:52:50.172Z,9.90
2023-02-06T08:53:52.353Z,9.88
2023-02-06T08:54:57.154Z,9.48
2023-02-06T08:56:00.946Z,10.00
2023-02-06T08:57:10.916Z,8.63
2023-02-06T08:58:15.679Z,9.10
2023-02-06T08:59:22.570Z,9.18
2023-02-06T09:00:25.878Z,9.40
2023-02-06T09:01:33.349Z,8.80
2023-02-06T09:02:39.472Z,10.25
2023-02-06T09:03:47.122Z,10.07
2023-02-06T09:04:53.306Z,9.93
2023-02-06T09:06:09.371Z,10.90
2023-02-06T09:07:17.399Z,10.82
2023-02-06T09:08:22.166Z,11.15
2023-02-06T09:09:27.265Z,9.75
2023-02-06T09:10:29.624Z,9.48
2023-02-06T09:11:34.489Z,9.85
2023-02-06T09:12:42.408Z,10.48
2023-02-06T09:13:50.435Z,9.98
2023-02-06T09:14:54.846Z,10.10
2023-02-06T09:15:59.568Z,10.55
2023-02-06T09:17:05.698Z,10.25
2023-02-06T09:18:10.295Z,9.60
2023-02-06T09:19:15.164Z,9.38
2023-02-06T09:20:21.557Z,9.40
2023-02-06T09:21:28.878Z,9.25
2023-02-06T09:22:36.220Z,9.57
2023-02-06T09:23:39.089Z,10.40
2023-02-06T09:24:44.193Z,8.88
2023-02-06T09:25:49.877Z,7.95
2023-02-06T09:27:00.795Z,8.48
2023-02-06T09:28:10.554Z,8.13
2023-02-06T09:29:15.632Z,7.47
2023-02-06T09:30:19.586Z,7.45
2023-02-06T09:31:24.209Z,7.00
2023-02-06T09:32:30.629Z,7.47
2023-02-06T09:33:33.475Z,7.88
2023-02-06T09:34:38.269Z,7.20
2023-02-06T09:35:45.312Z,7.05
2023-02-06T09:36:55.458Z,7.38
2023-02-06T09:38:01.928Z,7.05
2023-02-06T09:39:08.591Z,7.20
2023-02-06T09:40:19.762Z,7.43
2023-02-06T09:41:29.774Z,6.22
2023-02-06T09:42:37.688Z,6.68
2023-02-06T09:43:54.873Z,6.97
2023-02-06T09:45:08.837Z,6.80
2023-02-06T09:46:15.090Z,6.93
2023-02-06T09:47:26.383Z,6.47
2023-02-06T09:48:34.035Z,6.05
2023-02-06T09:49:43.391Z,6.45
2023-02-06T09:50:51.712Z,6.47
2023-02-06T09:52:23.862Z,6.70
2023-02-06T09:53:37.357Z,6.55
2023-02-06T09:54:55.400Z,6.65
2023-02-06T09:56:11.510Z,7.63
2023-02-06T09:57:21.156Z,7.55
2023-02-06T09:58:33.011Z,7.35
2023-02-06T09:59:48.494Z,6.78
2023-02-06T10:03:05.701Z,7.47
2023-02-06T10:04:32.708Z,8.02
2023-02-06T10:05:44.432Z,8.13
2023-02-06T10:08:07.453Z,7.35
2023-02-06T10:09:16.866Z,10.00
2023-02-06T10:10:27.337Z,10.77
2023-02-06T10:11:45.186Z,9.32
2023-02-06T10:12:56.407Z,9.93
2023-02-06T10:14:02.632Z,9.13
2023-02-06T10:15:16.491Z,8.68
2023-02-06T10:16:37.022Z,8.90
2023-02-06T10:17:51.702Z,7.97
2023-02-06T10:18:59.407Z,8.18
2023-02-06T10:20:08.059Z,8.52
2023-02-06T10:21:23.065Z,8.48
2023-02-06T10:24:26.530Z,8.20
2023-02-06T10:25:35.476Z,8.57
2023-02-06T10:26:42.796Z,8.13
2023-02-06T10:27:47.703Z,7.55
2023-02-06T10:28:55.999Z,7.05
2023-02-06T10:29:57.999Z,6.63
2023-02-06T10:31:17.756Z,7.55
2023-02-06T10:32:43.606Z,6.90
2023-02-06T10:33:58.535Z,6.95
2023-02-06T10:35:17.150Z,8.13
2023-02-06T10:36:39.350Z,7.85
2023-02-06T10:38:01.969Z,7.65
2023-02-06T10:39:41.069Z,8.02
2023-02-06T10:40:52.188Z,6.75
2023-02-06T10:42:08.177Z,7.32
2023-02-06T10:43:23.413Z,9.88
2023-02-06T10:44:33.553Z,8.13
2023-02-06T10:45:42.702Z,7.70
2023-02-06T10:46:52.309Z,8.95
2023-02-06T10:47:58.698Z,8.07
2023-02-06T10:49:09.345Z,9.98
2023-02-06T10:50:25.396Z,8.90
2023-02-06T10:51:34.948Z,9.32
2023-02-06T10:52:37.566Z,8.65
2023-02-06T10:53:49.719Z,9.20
2023-02-06T10:54:58.217Z,10.10
2023-02-06T10:56:07.209Z,9.80
2023-02-06T10:57:18.379Z,8.60
2023-02-06T10:58:24.507Z,7.65
2023-02-06T10:59:32.827Z,9.93
2023-02-06T11:00:35.399Z,8.95
2023-02-06T11:01:43.709Z,8.27
2023-02-06T11:03:06.846Z,9.50
2023-02-06T11:04:18.161Z,9.20
2023-02-06T11:05:25.902Z,9.43
2023-02-06T11:06:32.658Z,8.45
2023-02-06T11:07:41.650Z,10.73
2023-02-06T11:08:48.398Z,9.05
2023-02-06T11:09:53.129Z,8.95
2023-02-06T11:10:58.064Z,9.32
2023-02-06T11:12:00.949Z,9.88
2023-02-06T11:13:09.170Z,9.57
2023-02-06T11:14:22.399Z,11.07
2023-02-06T11:15:35.782Z,8.70
2023-02-06T11:16:41.846Z,9.35
2023-02-06T11:17:47.329Z,9.20
2023-02-06T11:18:53.807Z,8.85
2023-02-06T11:20:20.336Z,8.05
2023-02-06T11:21:50.979Z,8.23
2023-02-06T11:22:55.769Z,7.85
2023-02-06T11:24:13.000Z,7.35
2023-02-06T11:25:29.379Z,14.38
2023-02-06T11:26:33.989Z,8.20
2023-02-06T11:27:36.710Z,10.57
2023-02-06T11:28:52.646Z,9.15
2023-02-06T11:29:57.870Z,8.45
2023-02-06T11:31:05.774Z,9.35
2023-02-06T11:32:27.049Z,11.52
2023-02-06T11:33:39.603Z,9.23
2023-02-06T11:37:35.820Z,8.95
2023-02-06T11:38:40.461Z,9.05
2023-02-06T11:39:42.477Z,8.93
2023-02-06T11:40:57.558Z,8.65
2023-02-06T11:42:04.761Z,10.00
2023-02-06T11:43:28.520Z,10.13
2023-02-06T11:44:39.704Z,7.82
2023-02-06T11:45:42.063Z,8.25
2023-02-06T11:46:46.777Z,8.82
2023-02-06T11:47:48.986Z,8.75
2023-02-06T11:49:07.476Z,9.88
2023-02-06T11:50:25.179Z,10.00
2023-02-06T11:51:48.891Z,8.63
2023-02-06T11:53:00.164Z,8.02
2023-02-06T11:54:04.139Z,9.30
2023-02-06T11:55:09.305Z,8.35
2023-02-06T11:56:21.557Z,9.32
2023-02-06T11:57:28.112Z,8.73
2023-02-06T11:58:32.410Z,9.27
2023-02-06T11:59:39.381Z,8.57
2023-02-06T12:02:31.250Z,7.78
2023-02-06T12:03:36.843Z,7.80
2023-02-06T12:04:44.468Z,8.85
2023-02-06T12:05:47.197Z,7.65
2023-02-06T12:06:54.950Z,8.43
2023-02-06T12:08:04.298Z,9.13
2023-02-06T12:09:15.329Z,9.30
2023-02-06T12:10:23.505Z,8.95
2023-02-06T12:11:35.518Z,8.32
2023-02-06T12:12:45.580Z,9.30
2023-02-06T12:13:55.911Z,8.40
2023-02-06T12:15:23.720Z,8.43
2023-02-06T12:16:30.161Z,8.20
2023-02-06T12:17:38.752Z,8.52
2023-02-06T12:20:45.796Z,8.45
2023-02-06T12:21:53.723Z,9.10
2023-02-06T12:22:59.444Z,10.63
2023-02-06T12:24:08.077Z,8.45
2023-02-06T12:25:26.440Z,9.23
2023-02-06T12:26:33.232Z,10.10
2023-02-06T12:27:39.274Z,9.00
2023-02-06T12:28:52.095Z,8.57
2023-02-06T12:29:59.974Z,9.05
2023-02-06T12:31:10.658Z,8.18
2023-02-06T12:32:20.499Z,9.03
2023-02-06T12:33:34.140Z,9.30
2023-02-06T12:34:53.966Z,9.55
2023-02-06T12:36:03.332Z,8.73
2023-02-06T12:37:15.184Z,10.02
2023-02-06T12:38:29.114Z,9.18
2023-02-06T12:39:35.297Z,9.07
2023-02-06T12:40:46.508Z,8.43
2023-02-06T12:42:22.017Z,9.10
2023-02-06T12:43:26.690Z,9.23
2023-02-06T12:44:36.614Z,8.70
2023-02-06T12:45:50.410Z,9.27
2023-02-06T12:47:08.246Z,9.70
2023-02-06T12:48:18.835Z,9.88
2023-02-06T12:49:24.546Z,9.45
2023-02-06T12:50:34.260Z,9.25
2023-02-06T12:51:45.692Z,9.55
2023-02-06T12:52:54.591Z,8.52
2023-02-06T12:54:03.416Z,8.80
2023-02-06T12:55:17.830Z,9.90
2023-02-06T12:56:30.448Z,9.10
2023-02-06T12:57:35.557Z,11.70
2023-02-06T12:58:53.502Z,10.00
2023-02-06T13:00:12.863Z,19.63
2023-02-06T13:01:34.238Z,81.28
2023-02-06T13:03:20.730Z,41.58
2023-02-06T13:04:27.898Z,45.20
2023-02-06T13:05:37.442Z,13.82
2023-02-06T13:06:54.215Z,9.10
2023-02-06T13:08:04.088Z,7.88
2023-02-06T13:09:10.441Z,9.52
2023-02-06T13:10:19.711Z,11.05
2023-02-06T13:11:32.677Z,9.90
2023-02-06T13:12:35.256Z,12.18
2023-02-06T13:13:42.286Z,11.07
2023-02-06T13:14:53.253Z,10.75
2023-02-06T13:15:57.710Z,8.32
2023-02-06T13:17:11.853Z,8.82
2023-02-06T13:18:52.888Z,10.35
2023-02-06T13:20:07.106Z,12.02
2023-02-06T13:21:17.796Z,10.90
2023-02-06T13:22:41.832Z,8.90
2023-02-06T13:23:54.085Z,9.00
2023-02-06T13:25:00.715Z,8.25
2023-02-06T13:26:05.708Z,9.25
2023-02-06T13:27:15.805Z,11.40
2023-02-06T13:28:59.535Z,12.07
2023-02-06T13:30:40.095Z,8.82
2023-02-06T13:31:44.869Z,9.23
2023-02-06T13:32:51.340Z,8.07
2023-02-06T13:33:57.363Z,9.57
2023-02-06T13:35:16.810Z,9.55
2023-02-06T13:36:27.679Z,8.82
2023-02-06T13:37:38.290Z,10.00
2023-02-06T13:38:43.752Z,10.30
2023-02-06T13:39:50.677Z,11.15
2023-02-06T13:41:29.592Z,10.20
2023-02-06T13:42:40.627Z,9.00
2023-02-06T13:43:50.008Z,8.95
2023-02-06T13:44:55.404Z,8.85
2023-02-06T13:46:03.121Z,8.25
2023-02-06T13:47:30.120Z,10.40
2023-02-06T13:48:57.784Z,8.15
2023-02-06T13:50:46.715Z,9.55
2023-02-06T13:51:53.479Z,8.23
2023-02-06T13:53:30.682Z,10.90
2023-02-06T13:55:01.687Z,9.57
2023-02-06T13:56:27.288Z,15.55
2023-02-06T13:57:45.281Z,23.42
2023-02-06T13:58:52.464Z,11.40
2023-02-06T14:00:02.739Z,11.35
2023-02-06T14:01:12.524Z,11.23
2023-02-06T14:02:27.507Z,10.73
2023-02-06T14:03:34.281Z,9.20
2023-02-06T14:04:40.740Z,18.80
2023-02-06T14:05:57.645Z,9.98
2023-02-06T14:07:19.552Z,9.40
2023-02-06T14:08:39.754Z,10.10
2023-02-06T14:09:56.562Z,8.93
2023-02-06T14:11:39.578Z,8.75
2023-02-06T14:12:59.645Z,10.68
2023-02-06T14:14:28.508Z,11.02
2023-02-06T14:15:38.665Z,10.98
2023-02-06T14:16:52.601Z,16.27
2023-02-06T14:18:08.081Z,9.65
2023-02-06T14:19:22.433Z,9.93
2023-02-06T14:20:32.237Z,9.95
2023-02-06T14:21:48.245Z,8.60
2023-02-06T14:23:00.522Z,9.18
2023-02-06T14:24:23.123Z,9.55
2023-02-06T14:25:46.240Z,8.32
2023-02-06T14:27:01.056Z,9.30
2023-02-06T14:28:15.809Z,8.98
2023-02-06T14:29:31.323Z,11.27
2023-02-06T14:30:45.116Z,9.20
2023-02-06T14:32:06.934Z,8.90
2023-02-06T14:33:27.456Z,9.32
2023-02-06T14:34:43.628Z,9.55
2023-02-06T14:36:06.568Z,9.43
2023-02-06T14:37:39.325Z,9.45
2023-02-06T14:39:11.159Z,12.07
2023-02-06T14:40:23.909Z,11.00
2023-02-06T14:41:28.882Z,7.90
2023-02-06T14:42:38.759Z,8.18
2023-02-06T14:43:47.623Z,8.93
2023-02-06T14:44:57.294Z,9.15
2023-02-06T14:46:08.054Z,9.02
2023-02-06T14:47:19.812Z,11.10
2023-02-06T14:48:29.932Z,9.82
2023-02-06T14:49:38.309Z,8.63
2023-02-06T14:50:43.145Z,9.05
2023-02-06T14:51:49.767Z,8.50
2023-02-06T14:52:58.893Z,7.80
2023-02-06T14:54:03.448Z,8.90
2023-02-06T14:55:35.456Z,9.30
2023-02-06T14:57:48.274Z,9.10
2023-02-06T14:58:52.942Z,8.43
2023-02-06T15:00:00.627Z,9.80
2023-02-06T15:01:22.212Z,10.80
2023-02-06T15:02:27.844Z,9.85
2023-02-06T15:03:32.422Z,8.82
2023-02-06T15:04:38.645Z,9.77
2023-02-06T15:05:43.784Z,10.98
2023-02-06T15:06:51.707Z,9.13
2023-02-06T15:08:00.906Z,8.70
2023-02-06T15:09:06.693Z,9.02
2023-02-06T15:10:14.636Z,9.70
2023-02-06T15:11:24.267Z,10.93
2023-02-06T15:12:32.222Z,10.38
2023-02-06T15:13:38.076Z,13.77
2023-02-06T15:14:53.359Z,9.27